createdAt,value
2018-12-10T00:00:04.067Z,90.19
2018-12-10T00:00:30.206Z,90.47
2018-12-10T00:00:56.313Z,90.85
2018-12-10T00:01:22.415Z,90.47
2018-12-10T00:01:48.525Z,90.47
2018-12-10T00:02:14.690Z,90.56
2018-12-10T00:02:40.823Z,90.47
2018-12-10T00:03:07.127Z,90.85
2018-12-10T00:03:33.270Z,90.37
2018-12-10T00:03:59.372Z,90.66
2018-12-10T00:04:25.495Z,90.28
2018-12-10T00:04:51.578Z,90.56
2018-12-10T00:05:17.720Z,90.66
2018-12-10T00:05:43.819Z,90.47
2018-12-10T00:06:09.922Z,90.56
2018-12-10T00:06:36.028Z,90.66
2018-12-10T00:07:02.140Z,90.37
2018-12-10T00:07:28.250Z,90.56
2018-12-10T00:07:54.350Z,90.75
2018-12-10T00:08:20.507Z,90.56
2018-12-10T00:08:46.730Z,90.47
2018-12-10T00:09:12.771Z,90.56
2018-12-10T00:09:38.881Z,90.47
2018-12-10T00:10:04.987Z,90.47
2018-12-10T00:10:31.098Z,90.56
2018-12-10T00:10:58.223Z,90.56
2018-12-10T00:11:24.329Z,90.56
2018-12-10T00:11:50.428Z,90.56
2018-12-10T00:12:16.531Z,90.56
2018-12-10T00:12:42.672Z,90.56
2018-12-10T00:13:08.810Z,90.94
2018-12-10T00:13:34.917Z,90.85
2018-12-10T00:14:01.050Z,90.85
2018-12-10T00:14:27.219Z,90.94
2018-12-10T00:14:53.318Z,90.94
2018-12-10T00:15:19.452Z,90.75
2018-12-10T00:15:45.561Z,90.66
2018-12-10T00:16:11.665Z,90.56
2018-12-10T00:16:37.763Z,90
2018-12-10T00:17:03.923Z,90.28
2018-12-10T00:17:30.054Z,89.9
2018-12-10T00:17:56.182Z,90.19
2018-12-10T00:18:22.278Z,90.66
2018-12-10T00:18:48.381Z,90.28
2018-12-10T00:19:14.552Z,90.66
2018-12-10T00:19:40.604Z,90.56
2018-12-10T00:20:06.712Z,90.19
2018-12-10T00:20:32.838Z,89.9
2018-12-10T00:20:58.941Z,89.9
2018-12-10T00:21:25.047Z,89.9
2018-12-10T00:21:51.154Z,89.9
2018-12-10T00:22:17.285Z,90
2018-12-10T00:22:43.501Z,90
2018-12-10T00:23:09.601Z,89.9
2018-12-10T00:23:35.738Z,90
2018-12-10T00:24:01.832Z,90.37
2018-12-10T00:24:27.936Z,89.9
2018-12-10T00:24:54.057Z,90.09
2018-12-10T00:25:20.155Z,90.09
2018-12-10T00:25:46.263Z,90
2018-12-10T00:26:12.374Z,89.9
2018-12-10T00:26:38.469Z,89.14
2018-12-10T00:27:04.585Z,89.8
2018-12-10T00:27:30.737Z,90
2018-12-10T00:27:56.841Z,89.71
2018-12-10T00:28:22.959Z,89.61
2018-12-10T00:28:49.056Z,89.61
2018-12-10T00:29:15.166Z,89.33
2018-12-10T00:29:41.271Z,89.04
2018-12-10T00:30:07.374Z,89.33
2018-12-10T00:30:33.477Z,89.04
2018-12-10T00:30:59.590Z,89.42
2018-12-10T00:31:25.706Z,88.85
2018-12-10T00:31:51.803Z,88.85
2018-12-10T00:32:17.902Z,89.04
2018-12-10T00:32:44.040Z,88.85
2018-12-10T00:33:10.191Z,89.04
2018-12-10T00:33:36.315Z,88.85
2018-12-10T00:34:02.424Z,89.04
2018-12-10T00:34:28.526Z,89.04
2018-12-10T00:34:54.633Z,88.95
2018-12-10T00:35:20.736Z,89.04
2018-12-10T00:35:46.844Z,88.85
2018-12-10T00:36:12.946Z,88.85
2018-12-10T00:36:39.048Z,89.14
2018-12-10T00:37:05.154Z,89.52
2018-12-10T00:37:31.256Z,89.04
2018-12-10T00:37:57.421Z,89.14
2018-12-10T00:38:23.529Z,88.85
2018-12-10T00:38:49.633Z,88.95
2018-12-10T00:39:15.734Z,89.52
2018-12-10T00:39:41.840Z,89.42
2018-12-10T00:40:07.941Z,89.04
2018-12-10T00:40:34.051Z,89.33
2018-12-10T00:41:00.184Z,89.14
2018-12-10T00:41:26.321Z,89.14
2018-12-10T00:41:52.426Z,89.23
2018-12-10T00:42:18.528Z,89.04
2018-12-10T00:42:44.630Z,89.04
2018-12-10T00:43:10.737Z,89.42
2018-12-10T00:43:36.843Z,89.14
2018-12-10T00:44:02.942Z,89.14
2018-12-10T00:44:29.050Z,89.42
2018-12-10T00:44:55.182Z,89.04
2018-12-10T00:45:21.287Z,89.04
2018-12-10T00:45:47.392Z,88.95
2018-12-10T00:46:13.529Z,89.14
2018-12-10T00:46:39.634Z,89.23
2018-12-10T00:47:05.740Z,89.04
2018-12-10T00:47:31.847Z,88.95
2018-12-10T00:47:57.984Z,88.95
2018-12-10T00:48:24.088Z,89.14
2018-12-10T00:48:50.188Z,88.85
2018-12-10T00:49:16.348Z,89.04
2018-12-10T00:49:42.449Z,89.14
2018-12-10T00:50:08.599Z,89.04
2018-12-10T00:50:34.698Z,89.04
2018-12-10T00:51:00.835Z,88.85
2018-12-10T00:51:26.934Z,88.67
2018-12-10T00:51:53.042Z,88.67
2018-12-10T00:52:19.172Z,88.47
2018-12-10T00:52:45.284Z,88.19
2018-12-10T00:53:11.394Z,88.76
2018-12-10T00:53:37.536Z,88.81
2018-12-10T00:54:03.639Z,88.85
2018-12-10T00:54:29.772Z,89.09
2018-12-10T00:54:55.914Z,89
2018-12-10T00:55:22.014Z,89
2018-12-10T00:55:48.123Z,88.81
2018-12-10T00:56:14.226Z,89.19
2018-12-10T00:56:40.330Z,89.19
2018-12-10T00:57:06.440Z,89.47
2018-12-10T00:57:32.551Z,89.14
2018-12-10T00:57:58.654Z,89.52
2018-12-10T00:58:24.764Z,88.95
2018-12-10T00:58:50.860Z,88.81
2018-12-10T00:59:16.972Z,88.95
2018-12-10T00:59:43.081Z,88.71
2018-12-10T01:00:09.187Z,88.62
2018-12-10T01:00:35.288Z,89.23
2018-12-10T01:01:01.387Z,89.09
2018-12-10T01:01:27.495Z,88.53
2018-12-10T01:01:53.599Z,89.23
2018-12-10T01:02:19.735Z,89.14
2018-12-10T01:02:45.834Z,88.76
2018-12-10T01:03:11.944Z,89.04
2018-12-10T01:03:38.054Z,88.71
2018-12-10T01:04:04.154Z,88.67
2018-12-10T01:04:30.259Z,88.53
2018-12-10T01:04:56.368Z,88.53
2018-12-10T01:05:22.479Z,88.85
2018-12-10T01:05:48.607Z,89.04
2018-12-10T01:06:14.710Z,89.09
2018-12-10T01:06:40.817Z,89.09
2018-12-10T01:07:07.922Z,89
2018-12-10T01:07:34.022Z,89.09
2018-12-10T01:08:00.131Z,88.9
2018-12-10T01:08:26.265Z,89.28
2018-12-10T01:08:52.369Z,89.28
2018-12-10T01:09:18.482Z,88.9
2018-12-10T01:09:44.576Z,89
2018-12-10T01:10:10.691Z,89.28
2018-12-10T01:10:36.787Z,88.71
2018-12-10T01:11:02.928Z,88.9
2018-12-10T01:11:29.037Z,88.71
2018-12-10T01:11:55.134Z,88.81
2018-12-10T01:12:21.241Z,88.62
2018-12-10T01:12:47.345Z,88.81
2018-12-10T01:13:13.448Z,88.71
2018-12-10T01:13:39.553Z,89.09
2018-12-10T01:14:05.676Z,89
2018-12-10T01:14:31.789Z,89.09
2018-12-10T01:14:57.894Z,88.81
2018-12-10T01:15:24.023Z,89.19
2018-12-10T01:15:50.125Z,88.81
2018-12-10T01:16:16.230Z,88.9
2018-12-10T01:16:42.336Z,88.71
2018-12-10T01:17:08.438Z,88.9
2018-12-10T01:17:34.592Z,88.81
2018-12-10T01:18:00.689Z,88.71
2018-12-10T01:18:26.800Z,88.62
2018-12-10T01:18:52.897Z,89.28
2018-12-10T01:19:19.002Z,88.62
2018-12-10T01:19:45.135Z,88.71
2018-12-10T01:20:11.272Z,88.53
2018-12-10T01:20:37.374Z,88.34
2018-12-10T01:21:03.585Z,88.43
2018-12-10T01:21:29.637Z,88.34
2018-12-10T01:21:55.737Z,88.62
2018-12-10T01:22:21.843Z,88.9
2018-12-10T01:22:47.946Z,88.62
2018-12-10T01:23:14.048Z,88.62
2018-12-10T01:23:40.156Z,88.62
2018-12-10T01:24:06.262Z,88.62
2018-12-10T01:24:32.367Z,88.53
2018-12-10T01:24:58.502Z,88.15
2018-12-10T01:25:24.605Z,88.62
2018-12-10T01:25:50.711Z,88.15
2018-12-10T01:26:16.820Z,88.24
2018-12-10T01:26:42.924Z,88.43
2018-12-10T01:27:09.029Z,88.24
2018-12-10T01:27:35.132Z,88.43
2018-12-10T01:28:01.233Z,88.34
2018-12-10T01:28:27.344Z,88.43
2018-12-10T01:28:53.473Z,87.76
2018-12-10T01:29:19.575Z,87.95
2018-12-10T01:29:45.681Z,87.95
2018-12-10T01:30:11.784Z,88.05
2018-12-10T01:30:37.975Z,87.95
2018-12-10T01:31:04.027Z,87.95
2018-12-10T01:31:30.126Z,88.05
2018-12-10T01:31:56.239Z,88.24
2018-12-10T01:32:22.346Z,88.24
2018-12-10T01:32:48.449Z,88.24
2018-12-10T01:33:14.579Z,88.15
2018-12-10T01:33:40.684Z,88.05
2018-12-10T01:34:06.787Z,88.15
2018-12-10T01:34:32.888Z,88.15
2018-12-10T01:34:58.997Z,87.67
2018-12-10T01:35:25.096Z,87.95
2018-12-10T01:35:51.202Z,87.95
2018-12-10T01:36:17.305Z,88.05
2018-12-10T01:36:43.407Z,87.86
2018-12-10T01:37:09.514Z,88.43
2018-12-10T01:37:35.656Z,88.53
2018-12-10T01:38:01.755Z,88.43
2018-12-10T01:38:27.856Z,88.43
2018-12-10T01:38:53.958Z,88.43
2018-12-10T01:39:20.063Z,88.34
2018-12-10T01:39:46.201Z,88.34
2018-12-10T01:40:12.333Z,88.81
2018-12-10T01:40:38.439Z,88.71
2018-12-10T01:41:04.542Z,88.71
2018-12-10T01:41:30.647Z,88.34
2018-12-10T01:41:56.745Z,88.71
2018-12-10T01:42:22.883Z,88.62
2018-12-10T01:42:49.011Z,88.62
2018-12-10T01:43:15.150Z,88.24
2018-12-10T01:43:41.312Z,89.19
2018-12-10T01:44:07.490Z,88.9
2018-12-10T01:44:33.561Z,89.19
2018-12-10T01:44:59.669Z,89.09
2018-12-10T01:45:25.799Z,89.09
2018-12-10T01:45:51.940Z,89.09
2018-12-10T01:46:18.045Z,88.81
2018-12-10T01:46:44.154Z,88.81
2018-12-10T01:47:10.259Z,89.09
2018-12-10T01:47:36.416Z,89.09
2018-12-10T01:48:02.525Z,89.09
2018-12-10T01:48:28.628Z,89.28
2018-12-10T01:48:54.727Z,89.57
2018-12-10T01:49:20.837Z,89.86
2018-12-10T01:49:46.951Z,89.86
2018-12-10T01:50:13.046Z,89.95
2018-12-10T01:50:39.155Z,89.67
2018-12-10T01:51:05.253Z,89.67
2018-12-10T01:51:31.364Z,89.67
2018-12-10T01:51:57.475Z,90.05
2018-12-10T01:52:23.631Z,90.05
2018-12-10T01:52:49.739Z,90.05
2018-12-10T01:53:15.844Z,89.95
2018-12-10T01:53:41.947Z,89.38
2018-12-10T01:54:08.059Z,89.47
2018-12-10T01:54:34.191Z,89.47
2018-12-10T01:55:00.300Z,89.47
2018-12-10T01:55:26.410Z,89.38
2018-12-10T01:55:52.512Z,89.67
2018-12-10T01:56:18.679Z,89.47
2018-12-10T01:56:44.783Z,89.28
2018-12-10T01:57:10.886Z,89.67
2018-12-10T01:57:37.000Z,89.47
2018-12-10T01:58:03.101Z,89.28
2018-12-10T01:58:29.215Z,89.28
2018-12-10T01:58:55.323Z,89.67
2018-12-10T01:59:21.456Z,89.57
2018-12-10T01:59:47.559Z,89.57
2018-12-10T02:00:13.673Z,89
2018-12-10T02:00:39.801Z,89.57
2018-12-10T02:01:05.907Z,89.09
2018-12-10T02:01:32.015Z,89.28
2018-12-10T02:01:58.154Z,89
2018-12-10T02:02:24.267Z,88.81
2018-12-10T02:02:50.368Z,89.04
2018-12-10T02:03:16.505Z,89.19
2018-12-10T02:03:42.608Z,88.81
2018-12-10T02:04:08.711Z,88.9
2018-12-10T02:04:34.811Z,88.71
2018-12-10T02:05:00.920Z,89
2018-12-10T02:05:27.028Z,88.71
2018-12-10T02:05:53.131Z,88.9
2018-12-10T02:06:19.233Z,89.09
2018-12-10T02:06:45.371Z,89.09
2018-12-10T02:07:11.470Z,89
2018-12-10T02:07:37.615Z,89.19
2018-12-10T02:08:03.745Z,89.38
2018-12-10T02:08:29.856Z,89.47
2018-12-10T02:08:55.967Z,89.28
2018-12-10T02:09:22.068Z,89.95
2018-12-10T02:09:48.177Z,90.14
2018-12-10T02:10:14.303Z,90.23
2018-12-10T02:10:40.410Z,90.14
2018-12-10T02:11:06.536Z,89.95
2018-12-10T02:11:32.666Z,90.23
2018-12-10T02:11:58.771Z,90.14
2018-12-10T02:12:24.906Z,90.14
2018-12-10T02:12:51.041Z,89.95
2018-12-10T02:13:17.143Z,90.23
2018-12-10T02:13:43.247Z,90.61
2018-12-10T02:14:09.359Z,90.42
2018-12-10T02:14:35.457Z,90.9
2018-12-10T02:15:01.612Z,91.09
2018-12-10T02:15:27.735Z,90.61
2018-12-10T02:15:53.846Z,90.9
2018-12-10T02:16:19.984Z,90.99
2018-12-10T02:16:46.082Z,90.99
2018-12-10T02:17:12.191Z,90.99
2018-12-10T02:17:38.352Z,91.28
2018-12-10T02:18:04.480Z,91.28
2018-12-10T02:18:30.664Z,91.56
2018-12-10T02:18:56.774Z,91.28
2018-12-10T02:19:22.875Z,91.28
2018-12-10T02:19:48.981Z,91.75
2018-12-10T02:20:15.092Z,91.66
2018-12-10T02:20:41.288Z,91.66
2018-12-10T02:21:07.322Z,91.75
2018-12-10T02:21:33.425Z,91.66
2018-12-10T02:21:59.535Z,91.85
2018-12-10T02:22:25.640Z,91.56
2018-12-10T02:22:51.744Z,91.56
2018-12-10T02:23:17.849Z,91.47
2018-12-10T02:23:43.988Z,91.66
2018-12-10T02:24:10.090Z,91.66
2018-12-10T02:24:36.218Z,91.66
2018-12-10T02:25:02.382Z,91.85
2018-12-10T02:25:28.488Z,92.23
2018-12-10T02:25:54.592Z,92.04
2018-12-10T02:26:20.701Z,92.04
2018-12-10T02:26:46.804Z,91.66
2018-12-10T02:27:12.905Z,92.04
2018-12-10T02:27:39.020Z,91.47
2018-12-10T02:28:05.126Z,91.66
2018-12-10T02:28:31.228Z,92.04
2018-12-10T02:28:57.367Z,92.04
2018-12-10T02:29:23.468Z,92.13
2018-12-10T02:29:49.569Z,92.23
2018-12-10T02:30:15.708Z,91.85
2018-12-10T02:30:41.860Z,92.51
2018-12-10T02:31:08.003Z,92.23
2018-12-10T02:31:34.142Z,92.61
2018-12-10T02:32:00.246Z,92.61
2018-12-10T02:32:26.407Z,92.42
2018-12-10T02:32:52.543Z,92.8
2018-12-10T02:33:18.647Z,92.8
2018-12-10T02:33:44.752Z,92.71
2018-12-10T02:34:10.862Z,92.32
2018-12-10T02:34:36.966Z,92.8
2018-12-10T02:35:03.075Z,92.61
2018-12-10T02:35:29.205Z,92.61
2018-12-10T02:35:55.362Z,92.51
2018-12-10T02:36:21.466Z,92.23
2018-12-10T02:36:47.578Z,92.71
2018-12-10T02:37:13.679Z,92.32
2018-12-10T02:37:39.827Z,92.51
2018-12-10T02:38:05.934Z,92.32
2018-12-10T02:38:32.066Z,93.08
2018-12-10T02:38:58.176Z,92.99
2018-12-10T02:39:24.319Z,93.18
2018-12-10T02:39:50.413Z,92.9
2018-12-10T02:40:16.540Z,92.71
2018-12-10T02:40:42.640Z,92.9
2018-12-10T02:41:08.751Z,92.99
2018-12-10T02:41:34.853Z,92.8
2018-12-10T02:42:00.991Z,92.99
2018-12-10T02:42:27.120Z,92.61
2018-12-10T02:42:53.255Z,92.9
2018-12-10T02:43:19.419Z,92.71
2018-12-10T02:43:45.567Z,92.71
2018-12-10T02:44:11.695Z,92.61
2018-12-10T02:44:37.796Z,92.71
2018-12-10T02:45:03.906Z,92.71
2018-12-10T02:45:30.011Z,92.71
2018-12-10T02:45:56.145Z,92.71
2018-12-10T02:46:22.363Z,92.99
2018-12-10T02:46:48.470Z,92.8
2018-12-10T02:47:14.576Z,92.8
2018-12-10T02:47:40.736Z,92.99
2018-12-10T02:48:06.844Z,92.23
2018-12-10T02:48:32.957Z,92.32
2018-12-10T02:48:59.058Z,92.32
2018-12-10T02:49:25.187Z,92.71
2018-12-10T02:49:51.322Z,92.42
2018-12-10T02:50:17.428Z,92.32
2018-12-10T02:50:43.535Z,92.13
2018-12-10T02:51:09.635Z,92.85
2018-12-10T02:51:35.738Z,92.85
2018-12-10T02:52:02.034Z,92.9
2018-12-10T02:52:28.065Z,92.9
2018-12-10T02:52:54.195Z,92.66
2018-12-10T02:53:20.300Z,92.9
2018-12-10T02:53:46.463Z,92.94
2018-12-10T02:54:12.628Z,93.08
2018-12-10T02:54:38.758Z,92.99
2018-12-10T02:55:04.894Z,92.9
2018-12-10T02:55:31.167Z,92.99
2018-12-10T02:55:57.286Z,92.9
2018-12-10T02:56:23.387Z,92.99
2018-12-10T02:56:49.496Z,92.32
2018-12-10T02:57:15.616Z,92.8
2018-12-10T02:57:41.756Z,92.23
2018-12-10T02:58:07.861Z,92.51
2018-12-10T02:58:33.953Z,92.13
2018-12-10T02:59:00.097Z,92.71
2018-12-10T02:59:26.237Z,92.13
2018-12-10T02:59:52.374Z,92.23
2018-12-10T03:00:18.558Z,92.13
2018-12-10T03:00:44.692Z,92.13
2018-12-10T03:01:10.867Z,92.32
2018-12-10T03:01:36.970Z,92.04
2018-12-10T03:02:03.071Z,92.32
2018-12-10T03:02:29.175Z,91.85
2018-12-10T03:02:55.312Z,92.13
2018-12-10T03:03:21.439Z,92.23
2018-12-10T03:03:47.568Z,92.04
2018-12-10T03:04:13.672Z,92.23
2018-12-10T03:04:39.766Z,92.23
2018-12-10T03:05:05.875Z,91.85
2018-12-10T03:05:32.031Z,92.13
2018-12-10T03:05:58.136Z,91.85
2018-12-10T03:06:24.235Z,92.42
2018-12-10T03:06:50.384Z,92.42
2018-12-10T03:07:16.515Z,91.85
2018-12-10T03:07:42.649Z,91.85
2018-12-10T03:08:08.826Z,91.47
2018-12-10T03:08:34.926Z,91.66
2018-12-10T03:09:01.035Z,91.85
2018-12-10T03:09:27.136Z,91.85
2018-12-10T03:09:53.248Z,91.47
2018-12-10T03:10:19.376Z,91.66
2018-12-10T03:10:45.512Z,91.66
2018-12-10T03:11:11.615Z,91.47
2018-12-10T03:11:37.719Z,91.66
2018-12-10T03:12:03.880Z,92.04
2018-12-10T03:12:29.987Z,91.75
2018-12-10T03:12:56.093Z,91.47
2018-12-10T03:13:22.202Z,91.56
2018-12-10T03:13:48.304Z,91.42
2018-12-10T03:14:14.415Z,91.75
2018-12-10T03:14:40.540Z,91.47
2018-12-10T03:15:06.651Z,91.47
2018-12-10T03:15:32.751Z,91.66
2018-12-10T03:15:58.849Z,91.75
2018-12-10T03:16:24.986Z,91.75
2018-12-10T03:16:51.089Z,91.56
2018-12-10T03:17:17.222Z,91.75
2018-12-10T03:17:43.336Z,91.38
2018-12-10T03:18:09.454Z,92.13
2018-12-10T03:18:35.556Z,91.85
2018-12-10T03:19:01.661Z,91.75
2018-12-10T03:19:27.772Z,91.75
2018-12-10T03:19:53.870Z,92.13
2018-12-10T03:20:19.998Z,92.42
2018-12-10T03:20:46.102Z,91.85
2018-12-10T03:21:13.185Z,92.28
2018-12-10T03:21:39.296Z,92.32
2018-12-10T03:22:05.401Z,92.13
2018-12-10T03:22:31.504Z,91.56
2018-12-10T03:22:57.612Z,91.66
2018-12-10T03:23:23.772Z,91.61
2018-12-10T03:23:49.881Z,92.28
2018-12-10T03:24:15.989Z,92.09
2018-12-10T03:24:42.158Z,92.18
2018-12-10T03:25:08.260Z,91.99
2018-12-10T03:25:34.368Z,92.47
2018-12-10T03:26:00.499Z,92.28
2018-12-10T03:26:26.602Z,92.09
2018-12-10T03:26:52.766Z,92.18
2018-12-10T03:27:18.880Z,92.37
2018-12-10T03:27:45.007Z,92.09
2018-12-10T03:28:11.248Z,91.99
2018-12-10T03:28:37.328Z,92.18
2018-12-10T03:29:03.466Z,92.23
2018-12-10T03:29:29.621Z,92.09
2018-12-10T03:29:55.728Z,92.56
2018-12-10T03:30:21.883Z,92.18
2018-12-10T03:30:48.030Z,92.75
2018-12-10T03:31:14.225Z,92.75
2018-12-10T03:31:40.362Z,92.09
2018-12-10T03:32:06.512Z,92.56
2018-12-10T03:32:32.697Z,92.75
2018-12-10T03:32:58.880Z,92.28
2018-12-10T03:33:25.274Z,92.47
2018-12-10T03:33:51.417Z,92.18
2018-12-10T03:34:17.510Z,92.18
2018-12-10T03:34:43.638Z,92.09
2018-12-10T03:35:09.768Z,92.18
2018-12-10T03:35:35.910Z,92.37
2018-12-10T03:36:02.012Z,92.09
2018-12-10T03:36:28.209Z,92.09
2018-12-10T03:36:54.315Z,92.13
2018-12-10T03:37:20.511Z,92.51
2018-12-10T03:37:47.631Z,92.51
2018-12-10T03:38:13.769Z,92.09
2018-12-10T03:38:39.871Z,92.18
2018-12-10T03:39:05.982Z,92.37
2018-12-10T03:39:32.087Z,92.23
2018-12-10T03:39:58.224Z,91.99
2018-12-10T03:40:24.332Z,92.51
2018-12-10T03:40:50.472Z,92.13
2018-12-10T03:41:16.567Z,92.32
2018-12-10T03:41:42.741Z,92.04
2018-12-10T03:42:08.856Z,92.32
2018-12-10T03:42:34.968Z,92.51
2018-12-10T03:43:01.074Z,92.04
2018-12-10T03:43:27.190Z,92.32
2018-12-10T03:43:53.328Z,92.42
2018-12-10T03:44:19.455Z,92.04
2018-12-10T03:44:45.566Z,91.85
2018-12-10T03:45:11.668Z,92.13
2018-12-10T03:45:37.767Z,92.32
2018-12-10T03:46:04.003Z,91.94
2018-12-10T03:46:30.069Z,92.04
2018-12-10T03:46:56.168Z,92.04
2018-12-10T03:47:22.274Z,91.85
2018-12-10T03:47:48.380Z,91.66
2018-12-10T03:48:14.494Z,91.42
2018-12-10T03:48:40.620Z,92.04
2018-12-10T03:49:06.724Z,92.04
2018-12-10T03:49:32.830Z,91.89
2018-12-10T03:49:58.979Z,91.99
2018-12-10T03:50:25.075Z,92.23
2018-12-10T03:50:51.187Z,91.8
2018-12-10T03:51:17.315Z,92.18
2018-12-10T03:51:43.462Z,92.18
2018-12-10T03:52:09.591Z,92.18
2018-12-10T03:52:35.722Z,91.94
2018-12-10T03:53:01.829Z,92.23
2018-12-10T03:53:27.967Z,91.8
2018-12-10T03:53:54.076Z,91.99
2018-12-10T03:54:20.186Z,92.32
2018-12-10T03:54:46.285Z,91.8
2018-12-10T03:55:12.448Z,91.66
2018-12-10T03:55:38.581Z,91.99
2018-12-10T03:56:04.713Z,91.61
2018-12-10T03:56:30.859Z,91.52
2018-12-10T03:56:57.013Z,92.04
2018-12-10T03:57:23.149Z,92.13
2018-12-10T03:57:49.258Z,92.04
2018-12-10T03:58:15.369Z,92.32
2018-12-10T03:58:41.510Z,92.04
2018-12-10T03:59:07.626Z,92.13
2018-12-10T03:59:33.732Z,91.85
2018-12-10T03:59:59.834Z,91.85
2018-12-10T04:00:26.002Z,91.47
2018-12-10T04:00:52.137Z,91.66
2018-12-10T04:01:18.264Z,91.75
2018-12-10T04:01:44.567Z,91.66
2018-12-10T04:02:10.642Z,91.61
2018-12-10T04:02:36.766Z,91.61
2018-12-10T04:03:02.866Z,91.52
2018-12-10T04:03:28.973Z,91.42
2018-12-10T04:03:55.079Z,91.24
2018-12-10T04:04:21.213Z,91.99
2018-12-10T04:04:47.351Z,91.42
2018-12-10T04:05:13.457Z,91.71
2018-12-10T04:05:39.571Z,91.89
2018-12-10T04:06:05.695Z,91.99
2018-12-10T04:06:31.801Z,92.09
2018-12-10T04:06:57.951Z,92.18
2018-12-10T04:07:24.059Z,91.99
2018-12-10T04:07:50.191Z,92.09
2018-12-10T04:08:16.299Z,92.18
2018-12-10T04:08:42.433Z,92.09
2018-12-10T04:09:08.601Z,92.18
2018-12-10T04:09:34.727Z,91.99
2018-12-10T04:10:00.862Z,92.37
2018-12-10T04:10:26.963Z,92.09
2018-12-10T04:10:53.103Z,92.28
2018-12-10T04:11:19.203Z,92.18
2018-12-10T04:11:45.312Z,92.28
2018-12-10T04:12:11.420Z,92.28
2018-12-10T04:12:37.523Z,91.89
2018-12-10T04:13:03.626Z,92.18
2018-12-10T04:13:29.736Z,92.18
2018-12-10T04:13:55.889Z,92.18
2018-12-10T04:14:21.945Z,92.28
2018-12-10T04:14:48.050Z,92.28
2018-12-10T04:15:14.152Z,92.09
2018-12-10T04:15:40.257Z,92.18
2018-12-10T04:16:06.410Z,92.18
2018-12-10T04:16:32.548Z,92.18
2018-12-10T04:16:58.652Z,92.09
2018-12-10T04:17:24.753Z,92.37
2018-12-10T04:17:50.857Z,91.99
2018-12-10T04:18:16.959Z,92.18
2018-12-10T04:18:43.091Z,92.18
2018-12-10T04:19:09.206Z,92.18
2018-12-10T04:19:35.387Z,92.47
2018-12-10T04:20:01.494Z,92.85
2018-12-10T04:20:27.632Z,92.75
2018-12-10T04:20:53.824Z,91.99
2018-12-10T04:21:19.951Z,92.09
2018-12-10T04:21:46.062Z,92.18
2018-12-10T04:22:12.196Z,92.18
2018-12-10T04:22:38.301Z,92.09
2018-12-10T04:23:04.447Z,92.09
2018-12-10T04:23:30.560Z,91.99
2018-12-10T04:23:56.691Z,92.18
2018-12-10T04:24:22.830Z,92.09
2018-12-10T04:24:48.957Z,92.09
2018-12-10T04:25:15.087Z,91.71
2018-12-10T04:25:41.197Z,91.61
2018-12-10T04:26:07.301Z,91.71
2018-12-10T04:26:33.397Z,91.52
2018-12-10T04:26:59.507Z,91.33
2018-12-10T04:27:25.670Z,91.42
2018-12-10T04:27:51.828Z,91.71
2018-12-10T04:28:17.966Z,91.52
2018-12-10T04:28:44.093Z,91.52
2018-12-10T04:29:10.222Z,91.61
2018-12-10T04:29:36.365Z,91.42
2018-12-10T04:30:02.473Z,91.42
2018-12-10T04:30:28.573Z,91.52
2018-12-10T04:30:54.678Z,91.42
2018-12-10T04:31:20.815Z,91.33
2018-12-10T04:31:46.936Z,91.24
2018-12-10T04:32:13.067Z,91.52
2018-12-10T04:32:39.172Z,91.24
2018-12-10T04:33:05.300Z,91.24
2018-12-10T04:33:31.422Z,91.24
2018-12-10T04:33:57.555Z,91.24
2018-12-10T04:34:23.692Z,91.61
2018-12-10T04:34:49.787Z,91.71
2018-12-10T04:35:15.976Z,91.61
2018-12-10T04:35:42.108Z,91.71
2018-12-10T04:36:08.270Z,91.42
2018-12-10T04:36:34.381Z,91.71
2018-12-10T04:37:00.489Z,91.61
2018-12-10T04:37:26.626Z,91.42
2018-12-10T04:37:52.734Z,91.71
2018-12-10T04:38:18.868Z,91.61
2018-12-10T04:38:44.971Z,91.52
2018-12-10T04:39:11.109Z,91.42
2018-12-10T04:39:37.243Z,91.71
2018-12-10T04:40:03.353Z,91.14
2018-12-10T04:40:29.460Z,91.24
2018-12-10T04:40:55.597Z,91.8
2018-12-10T04:41:21.765Z,91.42
2018-12-10T04:41:47.896Z,91.71
2018-12-10T04:42:14.032Z,91.61
2018-12-10T04:42:40.178Z,91.99
2018-12-10T04:43:06.278Z,92.37
2018-12-10T04:43:32.431Z,91.8
2018-12-10T04:43:58.564Z,91.61
2018-12-10T04:44:24.725Z,91.8
2018-12-10T04:44:50.838Z,91.99
2018-12-10T04:45:16.965Z,91.8
2018-12-10T04:45:43.094Z,91.71
2018-12-10T04:46:09.192Z,91.61
2018-12-10T04:46:35.319Z,91.52
2018-12-10T04:47:01.435Z,91.42
2018-12-10T04:47:27.565Z,91.52
2018-12-10T04:47:53.695Z,91.8
2018-12-10T04:48:19.795Z,91.61
2018-12-10T04:48:45.935Z,91.24
2018-12-10T04:49:12.037Z,91.52
2018-12-10T04:49:38.146Z,91.52
2018-12-10T04:50:04.243Z,91.61
2018-12-10T04:50:30.355Z,91.61
2018-12-10T04:50:56.463Z,91.42
2018-12-10T04:51:22.614Z,91.42
2018-12-10T04:51:48.796Z,91.52
2018-12-10T04:52:14.924Z,91.24
2018-12-10T04:52:41.064Z,91.52
2018-12-10T04:53:07.197Z,91.42
2018-12-10T04:53:33.364Z,91.61
2018-12-10T04:53:59.465Z,91.42
2018-12-10T04:54:25.597Z,91.33
2018-12-10T04:54:52.735Z,91.42
2018-12-10T04:55:18.838Z,91.52
2018-12-10T04:55:44.971Z,91.8
2018-12-10T04:56:11.068Z,91.61
2018-12-10T04:56:37.180Z,91.61
2018-12-10T04:57:03.302Z,91.71
2018-12-10T04:57:29.407Z,91.71
2018-12-10T04:57:55.513Z,91.42
2018-12-10T04:58:21.649Z,91.42
2018-12-10T04:58:47.757Z,91.71
2018-12-10T04:59:13.862Z,91.33
2018-12-10T04:59:39.970Z,91.52
2018-12-10T05:00:08.491Z,91.42
2018-12-10T05:00:34.648Z,91.61
2018-12-10T05:01:00.763Z,91.52
2018-12-10T05:01:26.861Z,91.61
2018-12-10T05:01:52.966Z,91.71
2018-12-10T05:02:19.072Z,91.8
2018-12-10T05:02:45.174Z,91.42
2018-12-10T05:03:11.286Z,91.71
2018-12-10T05:03:37.418Z,91.71
2018-12-10T05:04:03.535Z,91.71
2018-12-10T05:04:29.641Z,91.42
2018-12-10T05:04:55.771Z,91.52
2018-12-10T05:05:21.881Z,91.24
2018-12-10T05:05:47.985Z,91.24
2018-12-10T05:06:14.150Z,91.33
2018-12-10T05:06:40.252Z,91.42
2018-12-10T05:07:06.354Z,91.42
2018-12-10T05:07:32.496Z,91.33
2018-12-10T05:07:58.600Z,91.33
2018-12-10T05:08:25.696Z,91.42
2018-12-10T05:08:51.800Z,91.61
2018-12-10T05:09:17.908Z,91.8
2018-12-10T05:09:44.010Z,91.99
2018-12-10T05:10:10.121Z,91.99
2018-12-10T05:10:36.222Z,91.8
2018-12-10T05:11:02.346Z,92.18
2018-12-10T05:11:28.457Z,92.47
2018-12-10T05:11:54.567Z,91.99
2018-12-10T05:12:20.668Z,91.89
2018-12-10T05:12:46.781Z,91.89
2018-12-10T05:13:12.884Z,91.8
2018-12-10T05:13:38.985Z,91.71
2018-12-10T05:14:05.094Z,92.18
2018-12-10T05:14:31.253Z,92.37
2018-12-10T05:14:57.363Z,92.09
2018-12-10T05:15:23.474Z,92.18
2018-12-10T05:15:49.605Z,91.99
2018-12-10T05:16:15.707Z,92.09
2018-12-10T05:16:41.815Z,92.18
2018-12-10T05:17:07.921Z,92.28
2018-12-10T05:17:34.071Z,92.09
2018-12-10T05:18:00.211Z,91.89
2018-12-10T05:18:26.313Z,92.09
2018-12-10T05:18:52.420Z,91.89
2018-12-10T05:19:18.583Z,91.89
2018-12-10T05:19:44.683Z,91.89
2018-12-10T05:20:10.795Z,92.18
2018-12-10T05:20:36.897Z,92.18
2018-12-10T05:21:02.997Z,91.89
2018-12-10T05:21:29.238Z,91.99
2018-12-10T05:21:55.410Z,92.09
2018-12-10T05:22:21.509Z,92.18
2018-12-10T05:22:47.615Z,92.28
2018-12-10T05:23:13.723Z,92.09
2018-12-10T05:23:39.827Z,91.89
2018-12-10T05:24:05.976Z,92.09
2018-12-10T05:24:32.072Z,91.99
2018-12-10T05:24:58.188Z,91.8
2018-12-10T05:25:24.292Z,92.09
2018-12-10T05:25:50.397Z,92.28
2018-12-10T05:26:16.503Z,92.47
2018-12-10T05:26:42.624Z,92.47
2018-12-10T05:27:08.723Z,92.09
2018-12-10T05:27:34.894Z,92.09
2018-12-10T05:28:00.997Z,92.18
2018-12-10T05:28:27.126Z,92.28
2018-12-10T05:28:53.264Z,92.09
2018-12-10T05:29:19.409Z,91.99
2018-12-10T05:29:45.513Z,92.37
2018-12-10T05:30:11.637Z,92.18
2018-12-10T05:30:37.741Z,92.18
2018-12-10T05:31:03.843Z,92.47
2018-12-10T05:31:29.953Z,91.89
2018-12-10T05:31:56.061Z,91.89
2018-12-10T05:32:22.204Z,92.09
2018-12-10T05:32:48.311Z,91.99
2018-12-10T05:33:14.415Z,92.09
2018-12-10T05:33:40.545Z,92.18
2018-12-10T05:34:06.652Z,92.09
2018-12-10T05:34:32.759Z,92.37
2018-12-10T05:34:58.857Z,92.18
2018-12-10T05:35:24.964Z,91.99
2018-12-10T05:35:51.070Z,92.47
2018-12-10T05:36:17.212Z,92.56
2018-12-10T05:36:43.278Z,92.94
2018-12-10T05:37:09.417Z,92.66
2018-12-10T05:37:35.521Z,92.75